Actualité

 

LogoChallengeNewsletter

Challenge du Pays Boulonnais
 
La cagnotte "Chronopale 2020" à partager entre tous les coureurs classés sur les 9 épreuves sera de 850€
Date des épreuves 2020
  1.  09/02/20 Les 6 Miles de Pont de Briques
  2.  08/03/20 Semi Marathon de la Terre des 2 Caps à Ferques (Sauf pour les cadets)
  3.  01/05/20 La Ronde du Fort de l'Heurt à Le Portel 10 Km (nature plage et falaise)
  4.  07/06/20 La Win Run à Wimereux 10 Km
  5.  28/06/20 Boulogne le 10 Km
  6.  11/10/20 Les Foulées de la Santé à Saint Martin 10 Km   
  7.  15/11/20 Les Foulées Outreloises à Outreau  10 Km            
  8.  22/11/20 Les Foulées de la Sainte Catherine à Menneville 10 Km *
  9.  05/12/20 Rues & Run Desvroises 10 Km

* A cette heure les Foulées de la Sainte Catherine de Menneville ne sont pas assurées d'avoir lieu (décision après les éléctions municipales) 

 

Nous contacter

Chronopale
59 Rue Léonce TOBO
62200 Boulogne sur mer
06 60 17 22 13
contact@chronopale.fr
www.chronopale.fr

 

26Km

26 Km Trail des Mille Monts du 05/05/19 (Réelle 26)
Rang Dossard Nom Prénom Temps Cat Rang Cat Ecart Ecart Cat Club Vitesse Km/h Temps au Km
1 466 THESSE David 01:48:59 V1M 1 00:00:00 00:00:00 - 14,314 04:12
2 555 MOITEL Benoit 01:51:09 SEM 1 00:02:10 00:00:00 OSA ATHLETISME 14,035 04:16
3 301 BOULOGNE Jérémie 01:51:29 V1M 2 00:02:30 00:02:30 - 13,993 04:17
4 362 DELWARDE Alexandre 01:52:05 SEM 2 00:03:06 00:00:56 - 13,918 04:19
5 495 POJDA Joffrey 01:57:24 SEM 3 00:08:25 00:06:15 ARTOIS ATHLéTISME 13,288 04:31
6 606 GOUEREC Julien 01:58:38 SEM 4 00:09:39 00:07:29 TEAMO2PALE 13,150 04:34
7 345 CHOQUET Félix 01:59:52 SEM 5 00:10:53 00:08:43 - 13,014 04:37
8 494 DEROO François 02:00:49 SEM 6 00:11:50 00:09:40 ARMENTIèRES 12,912 04:39
9 367 DESREUMAUX Romain 02:01:10 SEM 7 00:12:11 00:10:01 - 12,875 04:40
10 594 BATTESTI David 02:01:15 SEM 8 00:12:16 00:10:06 TEAM TRAIL 62 12,866 04:40
11 552 SUEUR Samuel 02:02:47 V1M 3 00:13:48 00:13:48 OMNISPORT CAMPAGNE LES HESDIN 12,705 04:43
12 426 MAINVILLE Theo 02:02:51 SEM 9 00:13:52 00:11:42 - 12,698 04:44
13 471 VANDEWALLE Thomas 02:04:49 SEM 10 00:15:50 00:13:40 - 12,498 04:48
14 410 LECOCQ Robin 02:05:15 ESM 1 00:16:16 00:00:00 - 12,455 04:49
15 499 HURAULT Corentin 02:06:41 SEM 11 00:17:42 00:15:32 ASPTT-LMA 12,314 04:52
16 546 CLAISSE Gonzague 02:07:50 SEM 12 00:18:51 00:16:41 LMA 12,203 04:55
17 488 KUYSTERMANS Tom 02:07:56 V1M 4 00:18:57 00:18:57 AC SODIBRUG 12,194 04:55
18 570 BOCQUET Rudolph 02:09:16 V1M 5 00:20:17 00:20:17 SAPEURS POMPIERS ARDRES 12,068 04:58
19 335 BULCKAEN Sylvain 02:09:43 SEM 13 00:20:44 00:18:34 - 12,026 04:59
20 536 DUTERTRE Rudy 02:09:50 SEM 14 00:20:51 00:18:41 GRAVELINES TRIATHLON 12,015 05:00
21 560 MAEREL Loïc 02:09:55 SEM 15 00:20:56 00:18:46 PATRIOTE GUINES 12,008 05:00
22 557 DESFACHELLES Hervé 02:11:09 V1M 6 00:22:10 00:22:10 PATRIOTE GUINES 11,895 05:03
23 553 COUVELARD Julien 02:11:22 SEM 16 00:22:23 00:20:13 OPALEFITOUTDOOR 11,875 05:03
24 460 SAUNEUF Philippe 02:11:47 V1M 7 00:22:48 00:22:48 - 11,838 05:04
25 562 ALLAN Sébastien 02:11:55 V2M 1 00:22:56 00:00:00 PATRIOTES DE GUîNES 11,826 05:04
26 392 HERTAULT Vincent 02:12:22 V2M 2 00:23:23 00:00:27 - 11,785 05:05
27 531 DESAINS Stéphane 02:14:09 V1M 8 00:25:10 00:25:10 CSLG CôTE D'OPALE 11,629 05:10
28 316 BEGUE Thierry 02:14:17 V2M 3 00:25:18 00:02:22 LE PORTEL 11,617 05:10
29 340 CATEZ Damien 02:14:58 V1M 9 00:25:59 00:25:59 - 11,558 05:11
30 518 COUVELARD Joel 02:15:01 SEM 17 00:26:02 00:23:52 CDL LUMBROIS 11,554 05:12
31 329 BOULENGER Romain 02:15:40 SEM 18 00:26:41 00:24:31 - 11,499 05:13
32 587 FIORI Xavier 02:16:08 SEM 19 00:27:09 00:24:59 TEAM ARDRUN 11,459 05:14
33 535 HARDY Antoine 02:16:46 SEM 20 00:27:47 00:25:37 ES ARQUES 11,406 05:16
34 559 DUPONT Jean-pierre 02:17:08 V2M 4 00:28:09 00:05:13 PATRIOTE GUINES 11,376 05:16
35 369 DOMERGUE Yoan 02:17:10 SEM 21 00:28:11 00:26:01 - 11,373 05:17
36 343 CHARLES Mathieu 02:17:21 SEM 22 00:28:22 00:26:12 - 11,358 05:17
37 436 MULIER Grégory 02:17:32 V1M 10 00:28:33 00:28:33 - 11,343 05:17
38 540 JOSEPH Joel 02:17:49 V2M 5 00:28:50 00:05:54 LA PATRIOTE CROSS DE GUINES 11,319 05:18
39 558 DUCLOY Eddy 02:18:28 V1M 11 00:29:29 00:29:29 PATRIOTE GUINES 11,266 05:20
40 537 LEFEBVRE William 02:20:15 SEM 23 00:31:16 00:29:06 GRAVELINES TRIATHLON 11,123 05:24
41 447 PIOT Benjamin 02:20:21 V1M 12 00:31:22 00:31:22 - 11,115 05:24
42 611 BERTIN Pascal 02:20:26 V2M 6 00:31:27 00:08:31 USCUD 11,108 05:24
43 515 WIDEHEM Christian 02:20:32 SEM 24 00:31:33 00:29:23 CAP 11,101 05:24
44 468 TULLIEZ Rémi 02:20:32 SEM 25 00:31:33 00:29:23 - 11,101 05:24
45 512 DELACRE Sylvain 02:20:51 V1M 13 00:31:52 00:31:52 CALAIS TERRE D'OPALE TRAIL 11,076 05:25
46 519 BOURDON Tony 02:21:00 V2M 7 00:32:01 00:09:05 CLLL ARMENTIèRES 11,064 05:25
47 543 GUILBERT Arnaud 02:21:06 V1M 14 00:32:07 00:32:07 LES HELL RUNNERS 11,056 05:26
48 548 MIEZE Nicolas 02:21:32 V1M 15 00:32:33 00:32:33 LOUCH'ANGELES RUNNERS 11,022 05:27
49 332 BOURDON Paul 02:21:52 ESM 2 00:32:53 00:16:37 - 10,996 05:27
50 401 KEPKA Roman 02:22:28 SEM 26 00:33:29 00:31:19 - 10,950 05:29
51 533 HOURIEZ Isabelle 02:22:30 SEF 1 00:33:31 00:00:00 DéPARTEMENT DU PAS-DE-CALAIS 10,947 05:29
52 391 HENQUEZ Dominique 02:23:43 V2M 8 00:34:44 00:11:48 - 10,855 05:32
53 475 VERNALDE Julien 02:24:03 SEM 27 00:35:04 00:32:54 - 10,830 05:32
54 465 TETART Mickael 02:24:26 V1M 16 00:35:27 00:35:27 - 10,801 05:33
55 438 NATANNI Steeven 02:24:39 SEM 28 00:35:40 00:33:30 - 10,785 05:34
56 393 HIBON Donatien 02:24:46 SEM 29 00:35:47 00:33:37 - 10,776 05:34
57 421 LHERBIER Olivier 02:24:48 V1M 17 00:35:49 00:35:49 - 10,773 05:34
58 493 CAYREYRE Olivier 02:25:14 V1M 18 00:36:15 00:36:15 ACVA VAFA SECTION TRAIL 10,741 05:35
59 371 DUCRET Ludovic 02:25:28 V1M 19 00:36:29 00:36:29 - 10,724 05:36
60 580 VIGNY Dan 02:26:20 SEM 30 00:37:21 00:35:11 STEENWERCK EN SHORT 10,661 05:38
61 602 BOUIN Bernard 02:26:26 V1M 20 00:37:27 00:37:27 TEAM TRAIL GRAVELINES 10,653 05:38
62 520 CHOQUET Gaétan 02:27:03 V1M 21 00:38:04 00:38:04 COLEMBERT 10,609 05:39
63 610 COCHETEUX Emmanuel 02:27:20 V1M 22 00:38:21 00:38:21 UNIRUN 10,588 05:40
64 350 COQUERELLE Corentin 02:27:32 SEM 31 00:38:33 00:36:23 - 10,574 05:40
65 604 WADOUX Cyril 02:27:57 SEM 32 00:38:58 00:36:48 TEAM TRAIL GRAVELINES 10,544 05:41
66 599 DHAILLECOURT Hervé 02:28:09 V1M 23 00:39:10 00:39:10 TEAM TRAIL AUDOMAROIS 10,530 05:42
67 354 CRESSON Julien 02:28:11 SEM 33 00:39:12 00:37:02 - 10,527 05:42
68 609 PEYRAUD Rudy 02:28:18 V1M 24 00:39:19 00:39:19 TOUQUET TRAIL NATURE 10,519 05:42
69 388 GHYS Mathieu 02:29:05 SEM 34 00:40:06 00:37:56 - 10,464 05:44
70 532 VERNE Lucie 02:29:45 SEF 2 00:40:46 00:07:15 DECATHLON 10,417 05:46
71 415 LEJEUNE Thomas 02:29:58 SEM 35 00:40:59 00:38:49 - 10,402 05:46
72 404 LANOY Adrien 02:29:58 SEM 36 00:40:59 00:38:49 - 10,402 05:46
73 514 SAND Olivier 02:29:59 SEM 37 00:41:00 00:38:50 CAMB 10,401 05:46
74 469 VAN BOXSOM Frédéric 02:30:05 V1M 25 00:41:06 00:41:06 - 10,394 05:46
75 434 MOISSON Guillaume 02:30:08 SEM 38 00:41:09 00:38:59 - 10,391 05:46
76 432 MERLIN Matthieu 02:30:16 SEM 39 00:41:17 00:39:07 - 10,382 05:47
77 600 DASSONNEVILLE Xavier 02:30:24 V2M 9 00:41:25 00:18:29 TEAM TRAIL AUDOMAROIS 10,372 05:47
78 538 WINCKEL Constant 02:30:27 SEM 40 00:41:28 00:39:18 GRAVELINES TRIATHLON 10,369 05:47
79 342 CHARLES Daniel 02:30:43 V3M 1 00:41:44 00:00:00 - 10,351 05:48
80 454 ROBERT Gwenael 02:30:49 SEM 41 00:41:50 00:39:40 - 10,344 05:48
81 163 FOURNIER Lise 02:30:55 V1F 1 00:41:56 00:00:00 USL 10,337 05:48
82 589 JULIEN Willy 02:31:07 V1M 26 00:42:08 00:42:08 TEAM JUJU 10,323 05:49
83 463 SORET Thomas 02:31:27 SEM 42 00:42:28 00:40:18 - 10,300 05:49
84 505 LAMARRE Maxime 02:31:30 V2M 10 00:42:31 00:19:35 BOULOGNE ATHLéTIC CLUB 10,297 05:50
85 458 ROUSSEL Pierre 02:31:43 SEM 43 00:42:44 00:40:34 - 10,282 05:50
86 498 SAVOURAT Justin 02:31:44 SEM 44 00:42:45 00:40:35 ASPTT LILLE MéTROPOLE 10,281 05:50
87 382 FOULON Ludovic 02:31:59 SEM 45 00:43:00 00:40:50 - 10,264 05:51
88 530 TEN Arnaud 02:32:38 V1M 27 00:43:39 00:43:39 COURIR DANS LE LUMBROIS 10,221 05:52
89 529 TARTARE Yann 02:32:38 V1M 28 00:43:39 00:43:39 COURIR DANS LE LUMBROIS 10,221 05:52
90 304 MOUSSAY Laurent 02:32:59 V2M 11 00:44:00 00:21:04 - 10,197 05:53
91 378 FEREZ Yann 02:33:08 SEM 46 00:44:09 00:41:59 - 10,187 05:53
92 358 DEBUSSCHERE Marc 02:33:44 V1M 29 00:44:45 00:44:45 - 10,147 05:55
93 417 LEROY Henri 02:33:48 SEM 47 00:44:49 00:42:39 - 10,143 05:55
94 414 LEFIEF Maxime 02:33:56 SEM 48 00:44:57 00:42:47 - 10,134 05:55
95 352 COUCKE Maxime 02:33:59 SEM 49 00:45:00 00:42:50 - 10,131 05:55
96 439 NICOLE Yves 02:34:00 SEM 50 00:45:01 00:42:51 - 10,130 05:55
97 500 BLOND Grégory 02:34:12 V1M 30 00:45:13 00:45:13 BACO 10,117 05:56
98 593 LEGRAND Patrice 02:34:17 V3M 2 00:45:18 00:03:34 TEAM RUNNING DECATHLON 10,111 05:56
99 303 LEDEZ Lisa 02:34:27 SEF 3 00:45:28 00:11:57 - 10,100 05:56
100 376 DUREZ Frederic 02:34:40 V1M 31 00:45:41 00:45:41 - 10,086 05:57
101 407 LECLERCQ Jean-christophe 02:34:43 SEM 51 00:45:44 00:43:34 - 10,083 05:57
102 572 CLABAUT David 02:35:53 V1M 32 00:46:54 00:46:54 SAPEURS POMPIERS ARDRES 10,007 06:00
103 503 COCHON Philippe 02:36:05 V2M 12 00:47:06 00:24:10 BERCK OPALE SUD TRIATHLON 9,995 06:00
104 357 DE BEAUPUIS Stephane 02:36:10 V1M 33 00:47:11 00:47:11 - 9,989 06:00
105 605 THEILLIER Alexandre 02:36:22 V1M 34 00:47:23 00:47:23 TEAM TRAIL PARIS 9,977 06:01
106 544 CHIROUTTE Olivier 02:36:59 V1M 35 00:48:00 00:48:00 LES TYRANNOSAURES 9,937 06:02
107 338 CALON Jean-christophe 02:37:12 V2M 13 00:48:13 00:25:17 - 9,924 06:03
108 472 VASSEUR Michael 02:37:41 V1M 36 00:48:42 00:48:42 - 9,893 06:04
109 568 ERNEWEIN Alexia 02:38:22 SEF 4 00:49:23 00:15:52 S/L  NANTERRE ATHLETIC CLUB 9,851 06:05
110 360 DELAUTRE Clément 02:38:25 SEM 52 00:49:26 00:47:16 - 9,847 06:06
111 579 VERITÉ Hervé 02:38:31 V2M 14 00:49:32 00:26:36 SPORT PLUS 9,841 06:06
112 320 BAHEUX Jean michel 02:38:53 V3M 3 00:49:54 00:08:10 - 9,819 06:07
113 331 BOULINGUIEZ Tony 02:38:59 SEM 53 00:50:00 00:47:50 - 9,812 06:07
114 541 TARTART Sylvie 02:38:59 V1F 2 00:50:00 00:08:04 LA PATRIOTE CROSS DE GUINES 9,812 06:07
115 428 MANTEL Jeremy 02:39:19 SEM 54 00:50:20 00:48:10 - 9,792 06:08
116 595 GRESSIER Delphine 02:39:22 V1F 3 00:50:23 00:08:27 TEAM TRAIL 62 9,789 06:08
117 302 HÉNON Aurélie 02:39:29 SEF 5 00:50:30 00:16:59 - 9,782 06:08
118 597 RENARD Julien 02:40:08 V1M 37 00:51:09 00:51:09 TEAM TRAIL 62 9,742 06:10
119 573 BORDEZ Franck 02:40:17 V2M 15 00:51:18 00:28:22 SPORT PLUS 9,733 06:10
120 1329 BOUSNANE Salah 02:40:23 V1M 38 00:51:24 00:51:24 9,727 06:10
121 486 CARON Olivier 02:40:48 V1M 39 00:51:49 00:51:49 AC OUTREAU 9,701 06:11
122 566 LEFEBVRE Christophe 02:40:58 SEM 55 00:51:59 00:49:49 RC BLENDECQUES 9,691 06:11
123 491 DAUTREVAUX David 02:41:02 V1M 40 00:52:03 00:52:03 ACOUTREAU 9,687 06:12
124 534 TALLEUX Céline 02:41:42 V1F 4 00:52:43 00:10:47 EMA62 9,647 06:13
125 346 CLABAUX Yannick 02:41:46 V1M 41 00:52:47 00:52:47 - 9,644 06:13
126 319 AUFAURE Jerome 02:42:08 SEM 56 00:53:09 00:50:59 - 9,622 06:14
127 449 PRUDH François 02:42:17 SEM 57 00:53:18 00:51:08 - 9,613 06:15
128 487 DELANNOY Aurelie 02:42:19 SEF 6 00:53:20 00:19:49 AC OUTREAU 9,611 06:15
129 492 HANQUEZ Dorothée 02:42:19 SEF 7 00:53:20 00:19:49 ACOUTREAU 9,611 06:15
130 617 FRODURE Gauthier 02:42:51 V2M 16 00:53:52 00:30:56 USLJ 9,579 06:16
131 317 BERNARD Stéphane 02:42:56 V1M 42 00:53:57 00:53:57 - 9,574 06:16
132 528 POULET Jean luc 02:43:06 V2M 17 00:54:07 00:31:11 COURIR AU MONT DES CATS 9,565 06:16
133 339 CARPENTIER William 02:43:07 SEM 58 00:54:08 00:51:58 - 9,564 06:16
134 612 DELFOSSE Solène 02:43:43 SEF 8 00:54:44 00:21:13 USL J LEFFRINCKOUCKE 9,529 06:18
135 334 BRUTIER Laurent 02:44:18 V1M 43 00:55:19 00:55:19 - 9,495 06:19
136 542 GAMBLIN Virginie 02:44:44 SEF 9 00:55:45 00:22:14 LES FOULEES LOONOISES 9,470 06:20
137 598 BOSQUET Sophie 02:45:00 SEF 10 00:56:01 00:22:30 TEAM TRAIL AUDOMAROIS 9,455 06:21
138 406 LEBRIEZ Gregory 02:45:00 V1M 44 00:56:01 00:56:01 - 9,455 06:21
139 359 DEJAEGHERE François 02:45:00 V1M 45 00:56:01 00:56:01 - 9,455 06:21
140 390 GRIGNON Michael 02:45:01 V1M 46 00:56:02 00:56:02 - 9,454 06:21
141 563 HUART Guillaume 02:46:27 V1M 47 00:57:28 00:57:28 PIPI PIOU 9,372 06:24
142 455 ROBILLARD Hélène 02:46:43 SEF 11 00:57:44 00:24:13 - 9,357 06:25
143 496 BONVOISIN Eddy 02:46:44 V1M 48 00:57:45 00:57:45 AS CRS 16 9,356 06:25
144 564 TOUZET Ludovic 02:46:44 V1M 49 00:57:45 00:57:45 RACING CLUB EPERLECQUES 9,356 06:25
145 565 TOUZET Anne 02:46:44 V1F 5 00:57:45 00:15:49 RACING CLUB EPERLECQUES 9,356 06:25
146 511 BELLER Dominique 02:46:50 V1M 50 00:57:51 00:57:51 CACB COUDEKERQUE BRANCHE 9,351 06:25
147 584 PONSIN Adeline 02:47:10 SEF 12 00:58:11 00:24:40 TEAM ARD'RUN 9,332 06:26
148 372 DUHOT Romain 02:47:11 SEM 59 00:58:12 00:56:02 - 9,331 06:26
149 571 BOUQUILLON Frédéric 02:47:15 SEM 60 00:58:16 00:56:06 SAPEURS POMPIERS ARDRES 9,327 06:26
150 437 NATANNI Christophe 02:48:32 V2M 18 00:59:33 00:36:37 - 9,256 06:29
151 402 KOLFENTER Charles henri 02:49:03 SEM 61 01:00:04 00:57:54 - 9,228 06:30
152 577 HIARD André 02:49:14 V3M 4 01:00:15 00:18:31 SPORT PLUS 9,218 06:31
153 554 CORDIEZ Samuel 02:49:24 SEM 62 01:00:25 00:58:15 OS AIRE 9,209 06:31
154 446 PERQUY Aurélien 02:49:24 SEM 63 01:00:25 00:58:15 - 9,209 06:31
155 1331 LEDEZ JEAN-BERNARD 02:49:51 V2M 19 01:00:52 00:37:56 NON LICENCIE 9,185 06:32
156 425 MACON Nicolas 02:49:54 SEM 64 01:00:55 00:58:45 - 9,182 06:32
157 333 BRUNEL Sebastien 02:49:55 SEM 65 01:00:56 00:58:46 - 9,181 06:32
158 506 LEGRAND Alexis 02:49:55 SEM 66 01:00:56 00:58:46 BOURTHOISE DE SERVICES 9,181 06:32
159 545 MAGALHAES Jean carlos 02:50:12 V1M 51 01:01:13 01:01:13 LIBERTY ALUMINIUM DUNKERQUE 9,166 06:33
160 578 LANCE Benjamin 02:50:12 SEM 67 01:01:13 00:59:03 SPORT PLUS 9,166 06:33
161 457 ROQUE Nicolas 02:50:13 SEM 68 01:01:14 00:59:04 - 9,165 06:33
162 430 MARTY Didier 02:50:15 V2M 20 01:01:16 00:38:20 - 9,163 06:33
163 508 VASSEUR Aurélie 02:50:21 SEF 13 01:01:22 00:27:51 CAC CALOTERIE 9,158 06:33
164 614 SOHIER Angelique 02:50:36 SEF 14 01:01:37 00:28:06 USL JOGGING 9,144 06:34
165 445 PENNE Romain 02:51:08 SEM 69 01:02:09 00:59:59 - 9,116 06:35
166 411 LECOUSTRE Kevin 02:51:09 SEM 70 01:02:10 01:00:00 - 9,115 06:35
167 561 SAMELOT Vincent 02:51:09 V1M 52 01:02:10 01:02:10 PATRIOTE GUINES 9,115 06:35
168 422 LIXANDRU Andrei 02:51:58 V1M 53 01:02:59 01:02:59 - 9,072 06:37
169 603 LEMPIN David 02:52:46 V1M 54 01:03:47 01:03:47 TEAM TRAIL GRAVELINES 9,030 06:39
170 440 OLIVEIRA Tony 02:53:14 V1M 55 01:04:15 01:04:15 - 9,005 06:40
171 485 BATTESTI Julie 02:53:29 SEF 15 01:04:30 00:30:59 AC OUTREAU 8,992 06:40
172 314 LEDUC Jean maurice 02:54:08 V1M 56 01:05:09 01:05:09 DESVRES ATHLETISME 8,959 06:42
173 478 BERQUEZ Michel 02:54:09 V2M 21 01:05:10 00:42:14 AC CAPELLOIS 8,958 06:42
174 483 NORMANT Alain 02:54:09 V2M 22 01:05:10 00:42:14 AC CAPELLOIS 8,958 06:42
175 327 BLARET Laurent 02:54:09 V2M 23 01:05:10 00:42:14 - 8,958 06:42
176 482 RÉGNIER Christine 02:54:09 V2F 1 01:05:10 00:00:00 AC CAPELLOIS 8,958 06:42
177 479 BERQUEZ Karine 02:54:09 V1F 6 01:05:10 00:23:14 AC CAPELLOIS 8,958 06:42
178 585 SOUFFLET Yoan 02:54:16 V1M 57 01:05:17 01:05:17 TEAM ARD'RUN 8,952 06:42
179 386 GAILLARD Patrice 02:54:17 V1M 58 01:05:18 01:05:18 - 8,951 06:42
180 453 RICQUEBOURG Caroline 02:54:25 V1F 7 01:05:26 00:23:30 - 8,944 06:43
181 619 RICQUEBOURG Axel 02:54:27 V1M 59 01:05:28 01:05:28 VALMORAID 8,942 06:43
182 608 LAVIE Betty 02:55:15 V1F 8 01:06:16 00:24:20 TOUQUET TRAIL NATURE 8,902 06:44
183 583 PLAYE David 02:55:23 V1M 60 01:06:24 01:06:24 TEAM ARD'RUN 8,895 06:45
184 547 BERTE Stéphanie 02:55:37 V1F 9 01:06:38 00:24:42 LONGUENESSE NATURE AVENTURE 8,883 06:45
185 336 BUSSCHAERT Jan 02:55:45 V1M 61 01:06:46 01:06:46 - 8,876 06:46
186 526 HASBROUCQ Alain 02:56:21 V2M 24 01:07:22 00:44:26 COURIR à COMINES 8,846 06:47
187 601 POURCHEL Florian 02:56:51 SEM 71 01:07:52 01:05:42 TEAM TRAIL AUDOMAROIS 8,821 06:48
188 481 FAUQUEMBERGUE Véronique 02:56:54 V2F 2 01:07:55 00:02:45 AC CAPELLOIS 8,819 06:48
189 490 NOEL David 02:56:54 V1M 62 01:07:55 01:07:55 AC.CAPELLOIS 8,819 06:48
190 569 FAVIER Cindy 02:57:16 SEF 16 01:08:17 00:34:46 SAINT VENANT ATHLéTISME 8,800 06:49
191 476 WIART Eric 02:57:16 V2M 25 01:08:17 00:45:21 - 8,800 06:49
192 467 TRACHEZ Franckie 02:57:38 V1M 63 01:08:39 01:08:39 - 8,782 06:50
193 620 WILLIAMSON Thomas 02:57:48 V2M 26 01:08:49 00:45:53 WIMEREUX RUNNING CLUB 8,774 06:50
194 321 BAILLIE Jean françois 02:58:12 V2M 27 01:09:13 00:46:17 - 8,754 06:51
195 551 RAMON Pierre 02:58:15 V1M 64 01:09:16 01:09:16 O'MAX TEAM 8,752 06:51
196 504 BOUQUET Benjamin 02:58:23 SEM 72 01:09:24 01:07:14 BETHUNE ATHLETISME 8,745 06:52
197 501 LOUISE Cécile 02:58:38 V1F 10 01:09:39 00:27:43 BERCK ATHLéTISME COTE D'OPALE 8,733 06:52
198 423 LURETTE Frederic 02:59:04 V1M 65 01:10:05 01:10:05 - 8,712 06:53
199 416 LEMAIRE Adrien 03:00:38 SEM 73 01:11:39 01:09:29 - 8,636 06:57
200 441 COUBELLE Olivier 03:00:38 V1M 66 01:11:39 01:11:39 - 8,636 06:57
201 596 MARTEL Eric 03:00:58 V2M 28 01:11:59 00:49:03 TEAM TRAIL 62 8,620 06:58
202 1330 BOUSNANE Abdelhak 03:01:09 V1M 67 01:12:10 01:12:10 8,612 06:58
203 398 JEZEQUEL Kevin 03:01:36 SEM 74 01:12:37 01:10:27 - 8,590 06:59
204 521 SEGUIN Bertrand 03:02:07 V1M 68 01:13:08 01:13:08 COLEMBERT 8,566 07:00
205 510 BOULLET Sylvie 03:02:18 V2F 3 01:13:19 00:08:09 CACB 8,557 07:01
206 424 LYOËN Jean-marc 03:02:25 V3M 5 01:13:26 00:31:42 - 8,552 07:01
207 427 MALFAIT Stéphane 03:02:45 V2M 29 01:13:46 00:50:50 - 8,536 07:02
208 550 SCHOONHEERE Jb 03:02:49 V2M 30 01:13:50 00:50:54 O MAX TEAM 8,533 07:02
209 326 BERTELOOT Adéle 03:03:44 SEF 17 01:14:45 00:41:14 - 8,491 07:04
210 389 GILLIERS Annabelle 03:03:44 SEF 18 01:14:45 00:41:14 - 8,491 07:04
211 613 HAIN Magali 03:04:33 V1F 11 01:15:34 00:33:38 USL JOGGING 8,453 07:06
212 509 COUSIN Alexandre 03:04:59 V1M 69 01:16:00 01:16:00 CAC CALOTTERIE 8,433 07:07
213 396 HUMEZ Angele 03:05:11 SEF 19 01:16:12 00:42:41 - 8,424 07:07
214 370 DUBOIS Pascal 03:05:12 V1M 70 01:16:13 01:16:13 - 8,423 07:07
215 567 COLIN Cédric 03:05:13 SEM 75 01:16:14 01:14:04 RUNNING DéCATHLON LONGUENESSE 8,423 07:07
216 363 DEPECKER Emmanuel 03:05:13 V1M 71 01:16:14 01:16:14 - 8,423 07:07
217 349 CONNOIOUX Sébastien 03:05:13 V1M 72 01:16:14 01:16:14 - 8,423 07:07
218 353 CRESPIN Olivier 03:05:14 V1M 73 01:16:15 01:16:15 - 8,422 07:07
219 575 DENIS Corinne 03:05:15 V2F 4 01:16:16 00:11:06 SPORT PLUS 8,421 07:07
220 347 COLEAU Anne-sophie 03:05:23 V1F 12 01:16:24 00:34:28 - 8,415 07:08
221 368 DOLLE Gabriel 03:06:00 V1M 74 01:17:01 01:17:01 - 8,387 07:09
222 318 ALBERT Clémence 03:07:23 SEF 20 01:18:24 00:44:53 - 8,325 07:12
223 341 CHAMBRIN Ludovic 03:07:23 SEM 76 01:18:24 01:16:14 - 8,325 07:12
224 576 HIARD Annick 03:08:10 V3F 1 01:19:11 00:00:00 SPORT PLUS 8,291 07:14
225 429 MARCQ Nicolas 03:08:31 V1M 75 01:19:32 01:19:32 - 8,275 07:15
226 522 ABRAHAM Denis 03:08:31 V1M 76 01:19:32 01:19:32 COURIR à COMINES 8,275 07:15
227 523 ABRAHAM Véronique 03:08:31 V2F 5 01:19:32 00:14:22 COURIR à COMINES 8,275 07:15
228 607 DUPAS Rémy 03:08:57 SEM 77 01:19:58 01:17:48 TL59 8,256 07:16
229 377 FASQUEL Franck 03:08:57 SEM 78 01:19:58 01:17:48 - 8,256 07:16
230 480 FARNWORTH Graeme 03:09:54 V2M 31 01:20:55 00:57:59 AC CAPELLOIS 8,215 07:18
231 361 DELEZENNE Alexandre 03:10:09 V2M 32 01:21:10 00:58:14 - 8,204 07:19
232 375 DUREY Emeline 03:10:10 SEF 21 01:21:11 00:47:40 - 8,203 07:19
233 365 DESFACHELLES François 03:10:17 SEM 79 01:21:18 01:19:08 - 8,198 07:19
234 337 CAILLIAU Christelle 03:10:40 V2F 6 01:21:41 00:16:31 - 8,182 07:20
235 452 RICHARD Emmanuelle 03:10:41 V1F 13 01:21:42 00:39:46 - 8,181 07:20
236 470 VANDAMME Charly 03:10:55 SEM 80 01:21:56 01:19:46 - 8,171 07:21
237 450 REGUEME Dominique 03:11:14 V2M 33 01:22:15 00:59:19 - 8,158 07:21
238 477 BENDIAB Amaury 03:11:16 SEM 81 01:22:17 01:20:07 .. 8,156 07:21
239 356 DAUTHIEU Marc-antoine 03:11:27 V1M 77 01:22:28 01:22:28 - 8,148 07:22
240 525 DESTAILLEUR Vincent 03:11:42 V1M 78 01:22:43 01:22:43 COURIR à COMINES 8,138 07:22
241 502 VERHAMME Jennyfer 03:12:18 V1F 14 01:23:19 00:41:23 BERCK ATHLéTISME CôTé OPALE 8,112 07:24
242 374 DUPAS Romain 03:12:41 SEM 82 01:23:42 01:21:32 - 8,096 07:25
243 507 DEBRUXELLES Alain 03:12:49 V3M 6 01:23:50 00:42:06 CAC 8,091 07:25
244 379 FLAIG Sebastien 03:13:26 V1M 79 01:24:27 01:24:27 - 8,065 07:26
245 385 FRENAY Laurent 03:13:29 V2M 34 01:24:30 01:01:34 - 8,063 07:26
246 419 LESSART Alexandre 03:13:32 V1M 80 01:24:33 01:24:33 - 8,061 07:27
247 621 WILLIAMSON Nathalie 03:13:36 V2F 7 01:24:37 00:19:27 WIMEREUX RUNNING CLUB 8,058 07:27
248 366 DESMET Yves 03:16:07 V3M 7 01:27:08 00:45:24 - 7,954 07:33
249 616 AUMONT Jean pierre 03:16:19 V2M 35 01:27:20 01:04:24 USLJ 7,946 07:33
250 380 FONTAINE Grégory 03:17:22 V1M 81 01:28:23 01:28:23 - 7,904 07:35
251 474 VERGNES Yohan 03:17:23 SEM 83 01:28:24 01:26:14 - 7,903 07:36
252 582 LERICQ Jean philippe 03:17:34 V2M 36 01:28:35 01:05:39 TCM 7,896 07:36
253 581 GRIGNON Odile 03:17:34 V1F 15 01:28:35 00:46:39 TCM 7,896 07:36
254 344 CHEVRERE Florent 03:18:03 SEM 84 01:29:04 01:26:54 - 7,877 07:37
255 574 CHOCHOY Thierry 03:18:12 V2M 37 01:29:13 01:06:17 SPORT PLUS 7,871 07:37
256 615 VANDOMME Denis 03:19:24 V1M 82 01:30:25 01:30:25 USL JOGGING TRAIL ATTITUDE 7,823 07:40
257 513 DASSONVILLE Sandrine 03:21:01 V1F 16 01:32:02 00:50:06 CAMB 7,761 07:44
258 418 LESSART Vanessa 03:21:17 V1F 17 01:32:18 00:50:22 - 7,750 07:44
259 324 BAYEUX Coralie 03:22:15 SEF 22 01:33:16 00:59:45 - 7,713 07:47
260 409 LECLERCQ Johan 03:22:15 SEM 85 01:33:16 01:31:06 - 7,713 07:47
261 322 BARBIER Michael 03:22:32 V1M 83 01:33:33 01:33:33 - 7,702 07:47
262 405 LAVIEVILLE Frédéric 03:23:16 SEM 86 01:34:17 01:32:07 - 7,675 07:49
263 443 PAPIEROK Anne 03:24:30 V1F 18 01:35:31 00:53:35 - 7,628 07:52
264 351 COSSON Benoit 03:24:30 V1M 84 01:35:31 01:35:31 - 7,628 07:52
265 394 HONVAULT Nicolas 03:26:15 V1M 85 01:37:16 01:37:16 - 7,564 07:56
266 592 DAUTHIEU Cathy 03:26:22 V1F 19 01:37:23 00:55:27 TEAM RUN COURRIERES 7,559 07:56
267 433 MESSIANT Violaine 03:26:48 SEF 23 01:37:49 01:04:18 - 7,544 07:57
268 539 WINCKEL Noémie 03:27:09 ESF 1 01:38:10 00:00:00 GRAVELINES TRITAHLON 7,531 07:58
269 524 DESTAILLEUR Stephanie 03:27:25 SEF 24 01:38:26 01:04:55 COURIR à COMINES 7,521 07:59
270 448 POLEROWICZ Yann 03:28:11 SEM 87 01:39:12 01:37:02 - 7,493 08:00
271 590 JULIEN Roxane 03:31:22 SEF 25 01:42:23 01:08:52 TEAM JUJU 7,381 08:08
272 462 SIX Sylvie 03:31:22 SEF 26 01:42:23 01:08:52 - 7,381 08:08
273 328 BOT Estelle 03:31:28 V1F 20 01:42:29 01:00:33 - 7,377 08:08
274 517 LEFEBVRE Valentin 03:37:04 SEM 88 01:48:05 01:45:55 CAPONORD 7,187 08:21
275 408 LECLERCQ Delphine 03:49:33 SEF 27 02:00:34 01:27:03 - 6,796 08:50
276 484 BERTIN Samuel 03:49:33 SEM 89 02:00:34 01:58:24 AC CAPELOIS 6,796 08:50
277 473 VASSEUR Hugo 03:57:29 JUM 1 02:08:30 00:00:00 - 6,569 09:08